Time;durP1;ratioP1;P1;durP2;ratioP2;P2;SDS_P1;SDS_P2;PMS_P1;PMS_P2;Temp;Humidity;BMP_temperature;BMP_pressure;BME280_temperature;BME280_humidity;BME280_pressure;Samples;Min_cycle;Max_cycle;Signal;HPM_P1;HPM_P2
2023/07/31 00:01:41;;;;;;;15.70;5.93;;;;;;;16.82;100.00;100526.84;5059229;28;20065;-85
2023/07/31 00:04:12;;;;;;;17.23;6.60;;;;;;;16.77;100.00;100502.03;5056800;28;20507;-85
2023/07/31 00:06:50;;;;;;;14.88;5.90;;;;;;;16.66;100.00;100497.31;5053089;28;20063;-84
2023/07/31 00:09:17;;;;;;;11.50;5.20;;;;;;;16.78;100.00;100517.69;5043048;28;20053;-83
2023/07/31 00:11:43;;;;;;;11.57;6.13;;;;;;;16.72;100.00;100507.91;5046385;28;20098;-85
2023/07/31 00:14:19;;;;;;;11.95;6.20;;;;;;;16.83;100.00;100523.19;5059775;28;20075;-82
2023/07/31 00:16:45;;;;;;;11.88;5.93;;;;;;;16.66;100.00;100499.97;5057266;28;20384;-85
2023/07/31 00:19:15;;;;;;;16.83;6.68;;;;;;;16.80;100.00;100531.50;5052340;28;20045;-84
2023/07/31 00:21:46;;;;;;;11.35;5.88;;;;;;;16.84;100.00;100535.38;5049921;28;20107;-83
2023/07/31 00:24:15;;;;;;;13.82;6.20;;;;;;;16.80;100.00;100538.63;5056966;28;20056;-85
2023/07/31 00:26:50;;;;;;;15.07;6.32;;;;;;;16.81;100.00;100529.69;5055459;28;20103;-84
2023/07/31 00:36:07;;;;;;;12.32;5.57;;;;;;;16.96;100.00;100542.75;4829147;29;20512;-85
2023/07/31 00:39:00;;;;;;;12.45;6.25;;;;;;;16.90;100.00;100529.31;4991307;28;20201;-86
2023/07/31 00:41:26;;;;;;;10.48;5.57;;;;;;;16.94;100.00;100544.78;5045856;28;20100;-85
2023/07/31 00:43:53;;;;;;;12.77;5.63;;;;;;;16.83;100.00;100530.31;5051291;28;20045;-84
2023/07/31 00:46:21;;;;;;;10.52;5.38;;;;;;;16.91;100.00;100536.22;5042324;28;20091;-85
2023/07/31 00:48:48;;;;;;;12.45;5.65;;;;;;;16.85;100.00;100531.72;5049058;28;20080;-85
2023/07/31 00:51:15;;;;;;;12.50;5.50;;;;;;;16.96;100.00;100537.47;5054815;28;20128;-85
2023/07/31 00:53:43;;;;;;;14.30;5.45;;;;;;;16.92;100.00;100529.94;5054550;28;20049;-85
2023/07/31 00:56:11;;;;;;;10.93;5.47;;;;;;;16.95;100.00;100533.19;5045800;28;20088;-86
2023/07/31 00:58:38;;;;;;;16.42;5.50;;;;;;;16.94;100.00;100523.63;5046715;28;20131;-84
2023/07/31 01:01:05;;;;;;;12.23;6.05;;;;;;;16.92;100.00;100516.72;5054094;28;20056;-85
2023/07/31 01:03:31;;;;;;;10.65;5.25;;;;;;;16.95;100.00;100518.13;5048362;28;20132;-86
2023/07/31 01:06:13;;;;;;;16.30;5.65;;;;;;;16.96;100.00;100516.31;5056675;28;20131;-85
2023/07/31 01:08:52;;;;;;;9.13;5.07;;;;;;;16.92;100.00;100498.22;5059832;28;20089;-85
2023/07/31 01:11:28;;;;;;;9.23;5.20;;;;;;;16.89;100.00;100479.28;5060100;28;20049;-85
2023/07/31 01:13:55;;;;;;;12.55;5.22;;;;;;;16.88;100.00;100504.91;5062568;28;20049;-84
2023/07/31 01:16:29;;;;;;;13.25;5.88;;;;;;;16.94;100.00;100505.13;5054497;28;20458;-85
2023/07/31 01:18:55;;;;;;;13.23;5.20;;;;;;;16.95;100.00;100493.53;5054870;28;20127;-84
2023/07/31 01:21:49;;;;;;;13.65;5.55;;;;;;;16.99;100.00;100502.69;5047127;28;20126;-86
2023/07/31 01:24:34;;;;;;;12.60;5.82;;;;;;;17.03;100.00;100498.59;5055140;28;20044;-86
2023/07/31 01:27:09;;;;;;;12.45;5.57;;;;;;;16.95;100.00;100496.19;5046448;28;20053;-85
2023/07/31 01:29:44;;;;;;;11.57;5.72;;;;;;;17.05;100.00;100504.50;5046041;28;20136;-84
2023/07/31 01:32:13;;;;;;;13.48;5.75;;;;;;;17.03;100.00;100493.31;5055958;28;20128;-83
2023/07/31 01:34:42;;;;;;;16.90;5.55;;;;;;;17.08;100.00;100501.47;5051293;28;20151;-85
2023/07/31 01:37:08;;;;;;;10.48;5.18;;;;;;;17.03;100.00;100501.25;5050563;28;20531;-86
2023/07/31 01:39:35;;;;;;;11.45;5.47;;;;;;;17.01;100.00;100504.13;5058194;28;20069;-84
2023/07/31 01:42:03;;;;;;;10.90;5.55;;;;;;;16.99;100.00;100495.59;5049852;28;20079;-83
2023/07/31 01:44:33;;;;;;;10.98;5.50;;;;;;;16.98;100.00;100503.72;5054759;28;20136;-84
2023/07/31 01:47:02;;;;;;;12.30;5.30;;;;;;;16.98;100.00;100495.78;5049840;28;20084;-83
2023/07/31 01:49:28;;;;;;;12.48;5.47;;;;;;;16.82;100.00;100489.03;5066858;28;20071;-85
2023/07/31 01:51:57;;;;;;;11.10;5.60;;;;;;;16.96;100.00;100505.75;5058953;28;20570;-84
2023/07/31 01:54:27;;;;;;;13.20;5.68;;;;;;;16.93;100.00;100493.75;5059830;28;20073;-82
2023/07/31 01:56:54;;;;;;;12.93;5.53;;;;;;;17.00;100.00;100501.69;5056656;28;20087;-83
2023/07/31 01:59:22;;;;;;;13.50;5.82;;;;;;;17.09;100.00;100500.44;5062000;28;20084;-85
2023/07/31 02:01:48;;;;;;;12.52;6.80;;;;;;;17.10;100.00;100497.59;5054201;28;20053;-84
2023/07/31 02:04:15;;;;;;;15.60;5.30;;;;;;;17.10;100.00;100494.97;5053704;28;20045;-80
2023/07/31 02:06:41;;;;;;;11.73;5.45;;;;;;;17.10;100.00;100491.50;5055993;28;20085;-82
2023/07/31 02:09:08;;;;;;;11.55;5.38;;;;;;;17.15;100.00;100479.31;5054747;28;20233;-82
2023/07/31 02:11:35;;;;;;;15.63;5.07;;;;;;;17.16;100.00;100480.94;5060858;28;20092;-83
2023/07/31 02:14:01;;;;;;;10.38;5.53;;;;;;;17.13;100.00;100481.34;5051898;28;20128;-80
2023/07/31 02:16:29;;;;;;;9.68;5.05;;;;;;;17.14;100.00;100482.97;5048510;28;21514;-83
2023/07/31 02:18:58;;;;;;;10.00;5.43;;;;;;;17.16;100.00;100469.56;5066791;28;20060;-83
2023/07/31 02:21:26;;;;;;;8.82;5.55;;;;;;;17.14;100.00;100466.28;5074313;28;20068;-83
2023/07/31 02:24:11;;;;;;;8.93;4.93;;;;;;;17.06;100.00;100474.41;5073532;28;20044;-83
2023/07/31 02:26:38;;;;;;;13.55;5.93;;;;;;;17.14;100.00;100471.59;5062378;28;20132;-83
2023/07/31 02:29:05;;;;;;;13.85;5.63;;;;;;;17.05;100.00;100456.94;5049283;28;20049;-84
2023/07/31 02:31:35;;;;;;;12.30;5.82;;;;;;;17.09;100.00;100453.69;5062334;28;20491;-83
2023/07/31 02:34:02;;;;;;;9.63;5.50;;;;;;;17.07;100.00;100457.53;5048412;28;20057;-84
2023/07/31 02:36:29;;;;;;;12.77;5.50;;;;;;;16.93;100.00;100438.22;5064402;28;20053;-83
2023/07/31 02:38:55;;;;;;;12.48;5.70;;;;;;;17.07;100.00;100461.00;5065406;28;20083;-82
2023/07/31 02:41:22;;;;;;;11.05;5.82;;;;;;;17.19;100.00;100466.50;5062227;28;20119;-82
2023/07/31 02:43:48;;;;;;;11.65;5.72;;;;;;;17.10;100.00;100455.31;5062496;28;20823;-81
2023/07/31 02:46:15;;;;;;;10.93;5.68;;;;;;;17.19;100.00;100458.56;5051564;28;20129;-83
2023/07/31 02:48:43;;;;;;;12.75;5.65;;;;;;;17.21;100.00;100456.53;5057249;28;20072;-82
2023/07/31 02:51:09;;;;;;;11.32;5.93;;;;;;;17.22;100.00;100458.16;5051541;28;20145;-82
2023/07/31 02:53:36;;;;;;;13.32;5.72;;;;;;;17.24;100.00;100456.13;5055665;28;20108;-82
2023/07/31 02:56:03;;;;;;;12.13;6.15;;;;;;;17.21;100.00;100459.19;5063857;28;20055;-82
2023/07/31 02:58:29;;;;;;;14.10;5.85;;;;;;;17.23;100.00;100465.06;5043842;28;20129;-82
2023/07/31 03:00:56;;;;;;;11.07;5.78;;;;;;;17.21;100.00;100451.25;5050560;28;20131;-81
2023/07/31 03:03:22;;;;;;;11.27;6.28;;;;;;;17.26;100.00;100443.53;5063022;28;20081;-82
2023/07/31 03:05:51;;;;;;;15.98;6.38;;;;;;;17.28;100.00;100441.47;5065453;28;20091;-83
2023/07/31 03:08:18;;;;;;;9.90;5.47;;;;;;;17.29;100.00;100443.13;5065715;28;20052;-81
2023/07/31 03:10:44;;;;;;;10.30;5.97;;;;;;;17.26;100.00;100451.44;5056924;28;20045;-82
2023/07/31 03:13:11;;;;;;;13.80;5.72;;;;;;;17.31;100.00;100445.56;5050845;28;20325;-83
2023/07/31 03:15:38;;;;;;;12.68;6.13;;;;;;;17.32;100.00;100440.06;5052425;28;20210;-81
2023/07/31 03:18:04;;;;;;;13.00;6.63;;;;;;;17.37;100.00;100440.25;5059295;28;20132;-83
2023/07/31 03:20:31;;;;;;;11.60;5.65;;;;;;;17.35;100.00;100442.31;5058195;28;20076;-82
2023/07/31 03:22:59;;;;;;;16.23;6.50;;;;;;;17.34;100.00;100445.97;5062028;28;20069;-83
2023/07/31 03:25:25;;;;;;;9.93;5.78;;;;;;;17.34;100.00;100435.38;5054522;28;20117;-81
2023/07/31 03:27:52;;;;;;;14.80;5.93;;;;;;;17.30;100.00;100431.53;5063409;28;20136;-81
2023/07/31 03:30:18;;;;;;;9.90;5.90;;;;;;;17.31;100.00;100430.50;5057045;28;20087;-81
2023/07/31 03:32:50;;;;;;;15.18;6.35;;;;;;;17.23;100.00;100428.06;5061999;28;20104;-84
2023/07/31 03:35:47;;;;;;;16.08;6.07;;;;;;;17.23;100.00;100436.00;5060359;28;20469;-82
2023/07/31 03:38:15;;;;;;;16.88;6.03;;;;;;;17.14;100.00;100414.22;4994377;28;20060;-81
2023/07/31 03:40:42;;;;;;;13.88;6.30;;;;;;;17.11;100.00;100419.91;5040041;28;20058;-83
2023/07/31 03:43:09;;;;;;;12.55;6.28;;;;;;;17.13;100.00;100425.00;5058372;28;20075;-82
2023/07/31 03:45:35;;;;;;;11.48;5.93;;;;;;;17.04;100.00;100410.34;5059043;28;20081;-80
2023/07/31 03:48:02;;;;;;;10.52;6.20;;;;;;;17.05;100.00;100414.63;5062613;28;20081;-81
2023/07/31 03:50:29;;;;;;;13.18;6.00;;;;;;;17.21;100.00;100419.53;5060715;28;20094;-82
2023/07/31 03:52:55;;;;;;;9.75;5.95;;;;;;;17.25;100.00;100415.44;5049990;28;20133;-82
2023/07/31 03:55:23;;;;;;;13.52;6.00;;;;;;;17.24;100.00;100416.47;5050145;28;20049;-83
2023/07/31 03:57:50;;;;;;;15.13;6.05;;;;;;;17.20;100.00;100410.78;5046573;28;20511;-82
2023/07/31 04:00:17;;;;;;;14.60;6.80;;;;;;;17.23;100.00;100426.22;5040578;28;20158;-83
2023/07/31 04:02:43;;;;;;;11.57;6.25;;;;;;;17.21;100.00;100417.69;5054195;28;20040;-83
2023/07/31 04:05:10;;;;;;;11.38;6.25;;;;;;;17.29;100.00;100424.59;5052637;28;20068;-84
2023/07/31 04:07:37;;;;;;;12.75;6.90;;;;;;;17.30;100.00;100418.28;5049823;28;20093;-84
2023/07/31 04:10:04;;;;;;;11.73;6.40;;;;;;;17.21;100.00;100401.81;5052418;28;20603;-83
2023/07/31 04:12:32;;;;;;;16.75;6.60;;;;;;;17.23;100.00;100397.16;5022357;28;20109;-83
2023/07/31 04:14:59;;;;;;;14.23;6.93;;;;;;;17.26;100.00;100409.16;5031217;28;20132;-87
2023/07/31 04:17:25;;;;;;;14.30;7.10;;;;;;;17.24;100.00;100409.34;5039826;28;20132;-84
2023/07/31 04:19:52;;;;;;;16.42;6.85;;;;;;;17.27;100.00;100408.13;5041765;28;20049;-85
2023/07/31 04:22:20;;;;;;;10.20;6.35;;;;;;;17.28;100.00;100407.09;5040587;28;20092;-83
2023/07/31 04:24:46;;;;;;;10.90;6.47;;;;;;;17.31;100.00;100397.94;5045596;28;20045;-84
2023/07/31 04:27:16;;;;;;;11.63;6.55;;;;;;;17.28;100.00;100395.72;5060138;28;20076;-86
2023/07/31 04:29:45;;;;;;;9.93;5.97;;;;;;;17.26;100.00;100395.91;5047898;28;20048;-85
2023/07/31 04:32:12;;;;;;;14.23;6.75;;;;;;;17.22;100.00;100386.78;5041887;28;20075;-86
2023/07/31 04:34:39;;;;;;;12.90;6.60;;;;;;;17.20;100.00;100399.38;5043050;28;20045;-86
2023/07/31 04:37:06;;;;;;;13.60;6.10;;;;;;;17.29;100.00;100400.81;5037023;28;20132;-89
2023/07/31 04:39:33;;;;;;;11.02;6.30;;;;;;;17.31;100.00;100398.78;5045433;28;20073;-84
2023/07/31 04:41:59;;;;;;;12.48;6.07;;;;;;;17.33;100.00;100394.09;5036818;28;20132;-83
2023/07/31 04:44:26;;;;;;;10.50;6.40;;;;;;;17.33;100.00;100391.44;5039002;28;20488;-86
2023/07/31 04:46:54;;;;;;;13.00;6.47;;;;;;;17.43;100.00;100391.03;5040388;28;20077;-84
2023/07/31 04:49:21;;;;;;;10.13;6.15;;;;;;;17.37;100.00;100383.91;5039373;28;20085;-83
2023/07/31 04:51:47;;;;;;;13.45;6.18;;;;;;;17.40;100.00;100396.72;5048918;28;20049;-83
2023/07/31 04:54:14;;;;;;;11.75;7.07;;;;;;;17.43;100.00;100381.25;5056954;28;20137;-84
2023/07/31 04:56:41;;;;;;;11.63;6.50;;;;;;;17.49;100.00;100372.47;5045225;28;20101;-85
2023/07/31 04:59:08;;;;;;;12.15;6.30;;;;;;;17.63;100.00;100377.72;5039655;28;20132;-83
2023/07/31 05:01:34;;;;;;;12.63;6.63;;;;;;;17.68;100.00;100378.75;5052870;28;20045;-82
2023/07/31 05:04:02;;;;;;;11.90;6.28;;;;;;;17.74;100.00;100367.34;5051537;28;20128;-82
2023/07/31 05:06:29;;;;;;;11.55;7.13;;;;;;;17.79;100.00;100359.59;5059587;28;20132;-83
2023/07/31 05:08:55;;;;;;;12.18;6.50;;;;;;;17.81;100.00;100356.75;5058183;28;20053;-83
2023/07/31 05:11:22;;;;;;;8.57;5.78;;;;;;;17.81;100.00;100346.97;5042494;28;20081;-84
2023/07/31 05:13:49;;;;;;;11.02;6.45;;;;;;;17.88;100.00;100349.59;5060604;28;20119;-84
2023/07/31 05:16:15;;;;;;;12.60;6.55;;;;;;;17.98;100.00;100342.00;5050474;28;20451;-82
2023/07/31 05:18:42;;;;;;;9.82;6.10;;;;;;;17.97;100.00;100347.50;5061827;28;20152;-83
2023/07/31 05:21:10;;;;;;;15.32;6.32;;;;;;;17.97;100.00;100331.59;5045176;28;20050;-83
2023/07/31 05:23:36;;;;;;;11.70;6.18;;;;;;;18.15;100.00;100331.72;5048630;28;20129;-82
2023/07/31 05:26:04;;;;;;;12.07;6.43;;;;;;;18.20;99.92;100322.13;5041311;28;20413;-81
2023/07/31 05:28:35;;;;;;;7.80;5.40;;;;;;;18.17;99.59;100325.19;5041765;28;20084;-82
2023/07/31 05:31:02;;;;;;;9.15;5.93;;;;;;;18.16;99.90;100322.75;5040146;28;20085;-81
2023/07/31 05:33:29;;;;;;;9.10;5.85;;;;;;;18.01;99.02;100301.84;5048596;28;20053;-84
2023/07/31 05:35:56;;;;;;;9.85;5.78;;;;;;;18.06;99.41;100311.81;5056276;28;20104;-82
2023/07/31 05:38:24;;;;;;;11.00;6.10;;;;;;;18.02;99.36;100306.13;5061701;28;20531;-82
2023/07/31 05:40:50;;;;;;;9.23;6.03;;;;;;;17.98;99.70;100307.56;5061986;28;20045;-83
2023/07/31 05:43:17;;;;;;;10.20;5.95;;;;;;;17.94;100.00;100311.69;5041531;28;20092;-82
2023/07/31 05:45:44;;;;;;;9.35;5.90;;;;;;;17.83;100.00;100296.47;5041221;28;20049;-82
2023/07/31 05:48:13;;;;;;;10.65;5.68;;;;;;;17.85;100.00;100294.44;5042618;28;20542;-82
2023/07/31 05:50:39;;;;;;;9.38;5.93;;;;;;;17.86;100.00;100285.47;5046186;28;20045;-80
2023/07/31 05:53:07;;;;;;;9.23;5.57;;;;;;;17.83;100.00;100292.00;5051819;28;20052;-84
2023/07/31 05:55:35;;;;;;;9.77;5.43;;;;;;;17.80;100.00;100296.91;5048066;28;20444;-83
2023/07/31 05:58:02;;;;;;;8.73;5.32;;;;;;;17.82;100.00;100305.44;5041988;28;20072;-81
2023/07/31 06:00:32;;;;;;;9.05;5.90;;;;;;;17.75;100.00;100309.94;5041553;28;20124;-83
2023/07/31 06:02:58;;;;;;;10.93;6.03;;;;;;;17.69;100.00;100303.66;5044118;28;20081;-81
2023/07/31 06:05:26;;;;;;;13.45;6.45;;;;;;;17.65;100.00;100309.53;5057330;28;20487;-81
2023/07/31 06:07:52;;;;;;;9.88;6.03;;;;;;;17.58;100.00;100310.38;5048564;28;20049;-82
2023/07/31 06:10:19;;;;;;;9.55;5.75;;;;;;;17.50;100.00;100313.25;5047710;28;20075;-83
2023/07/31 06:12:47;;;;;;;15.93;5.82;;;;;;;17.47;100.00;100316.34;5047541;28;20405;-81
2023/07/31 06:15:13;;;;;;;10.55;5.95;;;;;;;17.34;100.00;100307.63;5040990;28;20110;-82
2023/07/31 06:17:40;;;;;;;11.60;6.20;;;;;;;17.48;100.00;100309.22;5048111;28;20084;-82
2023/07/31 06:20:08;;;;;;;10.13;5.68;;;;;;;17.44;100.00;100322.03;5054354;28;20099;-82
2023/07/31 06:22:35;;;;;;;13.82;6.30;;;;;;;17.47;100.00;100318.19;5056252;28;20041;-83
2023/07/31 06:25:01;;;;;;;11.57;6.57;;;;;;;17.49;100.00;100314.28;5066820;28;20589;-83
2023/07/31 06:27:28;;;;;;;14.10;6.25;;;;;;;17.47;100.00;100316.34;5047915;28;20057;-83
2023/07/31 06:29:56;;;;;;;10.60;5.78;;;;;;;17.50;100.00;100310.59;5049512;28;20087;-83
2023/07/31 06:32:24;;;;;;;10.80;6.28;;;;;;;17.53;100.00;100307.53;5055175;28;20045;-83
2023/07/31 06:34:51;;;;;;;11.52;5.97;;;;;;;17.64;100.00;100310.56;5050586;28;20104;-80
2023/07/31 06:37:18;;;;;;;13.27;6.20;;;;;;;17.66;100.00;100297.97;5056258;28;20053;-81
2023/07/31 06:39:45;;;;;;;10.60;6.13;;;;;;;17.69;100.00;100295.72;5057540;28;20052;-80
2023/07/31 06:42:11;;;;;;;10.98;5.72;;;;;;;17.75;100.00;100299.34;5067910;28;20057;-80
2023/07/31 06:44:38;;;;;;;9.73;5.93;;;;;;;17.90;100.00;100299.91;5061415;28;20132;-80
2023/07/31 06:47:09;;;;;;;10.77;6.00;;;;;;;18.01;100.00;100298.41;5057127;28;20076;-79
2023/07/31 06:49:35;;;;;;;10.23;5.45;;;;;;;18.11;100.00;100298.75;5045979;28;20113;-79
2023/07/31 06:52:02;;;;;;;12.93;6.13;;;;;;;18.33;100.00;100291.28;5049719;28;20052;-81
2023/07/31 06:54:28;;;;;;;8.70;5.63;;;;;;;18.26;100.00;100296.63;5056970;28;20056;-80
2023/07/31 06:56:55;;;;;;;11.00;5.65;;;;;;;18.33;100.00;100297.41;5058255;28;20136;-79
2023/07/31 06:59:21;;;;;;;8.07;5.22;;;;;;;18.28;100.00;100285.81;5058925;28;20096;-80
2023/07/31 07:01:48;;;;;;;13.65;6.25;;;;;;;18.25;100.00;100289.69;5037189;28;20084;-79
2023/07/31 07:04:16;;;;;;;10.57;5.85;;;;;;;18.32;100.00;100298.41;5052799;28;20053;-79
2023/07/31 07:06:43;;;;;;;10.38;5.68;;;;;;;18.36;100.00;100294.31;5062343;28;20135;-80
2023/07/31 07:09:09;;;;;;;9.60;6.00;;;;;;;18.33;100.00;100286.78;5059610;28;20124;-78
2023/07/31 07:11:37;;;;;;;10.43;5.85;;;;;;;18.27;100.00;100295.59;5043872;28;20049;-78
2023/07/31 07:14:03;;;;;;;10.75;5.30;;;;;;;18.26;100.00;100280.72;5048913;28;20049;-77
2023/07/31 07:16:30;;;;;;;8.98;5.38;;;;;;;18.24;100.00;100288.06;5043343;28;20140;-79
2023/07/31 07:18:57;;;;;;;10.38;5.50;;;;;;;18.28;100.00;100281.31;5035084;28;20087;-78
2023/07/31 07:21:25;;;;;;;15.02;5.50;;;;;;;18.31;100.00;100293.34;5033700;28;20123;-79
2023/07/31 07:23:52;;;;;;;9.05;5.50;;;;;;;18.26;100.00;100291.31;5033864;28;20227;-77
2023/07/31 07:26:18;;;;;;;10.32;5.43;;;;;;;18.33;100.00;100299.22;5051281;28;20131;-78
2023/07/31 07:28:45;;;;;;;9.77;5.50;;;;;;;18.23;100.00;100303.16;5047650;28;20074;-78
2023/07/31 07:31:11;;;;;;;7.80;5.13;;;;;;;18.11;100.00;100298.75;5044039;28;20064;-79
2023/07/31 07:33:38;;;;;;;12.45;5.78;;;;;;;18.09;100.00;100300.78;5053477;28;20160;-79
2023/07/31 07:36:09;;;;;;;9.98;5.38;;;;;;;18.07;100.00;100297.53;5052935;28;20132;-79
2023/07/31 07:38:39;;;;;;;9.70;5.80;;;;;;;18.06;100.00;100302.03;5044087;28;20049;-78
2023/07/31 07:41:05;;;;;;;10.63;5.63;;;;;;;18.03;100.00;100305.09;5049269;28;20083;-77
2023/07/31 07:43:32;;;;;;;11.73;5.90;;;;;;;18.01;100.00;100303.69;5041828;28;20049;-79
2023/07/31 07:45:59;;;;;;;13.60;6.40;;;;;;;18.10;100.00;100303.22;5040443;28;20128;-77
2023/07/31 07:48:26;;;;;;;11.07;5.35;;;;;;;18.02;100.00;100313.25;5034600;28;20400;-77
2023/07/31 07:50:52;;;;;;;9.40;5.60;;;;;;;17.70;100.00;100307.13;5044360;28;20060;-78
2023/07/31 07:53:19;;;;;;;9.70;5.72;;;;;;;17.75;100.00;100304.66;5036102;28;20132;-79
2023/07/31 07:55:47;;;;;;;11.25;5.57;;;;;;;17.78;100.00;100304.22;5052654;28;20049;-80
2023/07/31 07:58:13;;;;;;;10.75;5.93;;;;;;;17.88;100.00;100315.19;5044578;28;20426;-78
2023/07/31 08:00:40;;;;;;;8.73;5.35;;;;;;;17.91;100.00;100312.13;5047530;28;20140;-78
2023/07/31 08:03:07;;;;;;;12.27;5.45;;;;;;;17.90;100.00;100305.19;5049011;28;20080;-79
2023/07/31 08:05:34;;;;;;;7.47;4.70;;;;;;;17.87;100.00;100300.31;5041729;28;20044;-78
2023/07/31 08:08:00;;;;;;;10.70;5.40;;;;;;;17.89;100.00;100298.28;5036490;28;20424;-77
2023/07/31 08:10:27;;;;;;;8.20;5.05;;;;;;;17.86;100.00;100285.47;5034564;28;20457;-78
2023/07/31 08:12:55;;;;;;;11.57;5.55;;;;;;;17.91;100.00;100285.66;5035137;28;20045;-78
2023/07/31 08:15:21;;;;;;;7.95;5.13;;;;;;;18.09;100.00;100285.72;5066680;28;20068;-80
2023/07/31 08:17:48;;;;;;;9.18;5.13;;;;;;;18.10;100.00;100276.75;5061221;28;20077;-78
2023/07/31 08:20:15;;;;;;;8.25;4.82;;;;;;;18.16;100.00;100270.59;5052633;28;20076;-79
2023/07/31 08:22:42;;;;;;;8.35;5.32;;;;;;;18.22;100.00;100277.69;5033648;28;20579;-79
2023/07/31 08:25:09;;;;;;;11.32;5.05;;;;;;;18.43;100.00;100265.13;5033467;28;20133;-78
2023/07/31 08:27:35;;;;;;;9.30;5.03;;;;;;;18.44;100.00;100256.94;5038347;28;20535;-79
2023/07/31 08:30:04;;;;;;;7.45;4.88;;;;;;;18.49;100.00;100259.75;5035535;28;20053;-79
2023/07/31 08:32:31;;;;;;;9.18;5.78;;;;;;;18.51;100.00;100264.84;5044636;28;20053;-79
2023/07/31 08:34:58;;;;;;;8.45;5.10;;;;;;;18.39;100.00;100256.00;5036059;28;20480;-79
2023/07/31 08:37:29;;;;;;;7.55;5.10;;;;;;;18.42;100.00;100259.03;5033140;28;20521;-78
2023/07/31 08:39:56;;;;;;;9.35;5.13;;;;;;;18.36;100.00;100245.81;5032537;28;20069;-79
2023/07/31 08:42:22;;;;;;;8.95;5.15;;;;;;;18.53;100.00;100257.47;5038054;28;20464;-80
2023/07/31 08:44:50;;;;;;;8.38;4.95;;;;;;;18.61;100.00;100257.25;5037592;28;20068;-79
2023/07/31 08:47:22;;;;;;;8.63;5.03;;;;;;;18.62;100.00;100260.69;5037055;28;20229;-79
2023/07/31 08:49:50;;;;;;;9.68;5.00;;;;;;;18.68;100.00;100242.09;5030190;28;20053;-76
2023/07/31 08:52:16;;;;;;;9.43;5.13;;;;;;;18.81;100.00;100249.94;5039347;28;20053;-77
2023/07/31 08:54:43;;;;;;;8.40;4.93;;;;;;;18.90;100.00;100245.94;5031757;28;20047;-78
2023/07/31 08:57:12;;;;;;;10.18;4.88;;;;;;;19.01;100.00;100251.56;5034121;28;20496;-79
2023/07/31 08:59:40;;;;;;;6.88;4.47;;;;;;;18.94;100.00;100243.66;5043884;28;20507;-80
2023/07/31 09:02:08;;;;;;;13.07;4.97;;;;;;;18.88;100.00;100247.22;5042729;28;20587;-80
2023/07/31 09:04:36;;;;;;;8.75;4.75;;;;;;;18.74;100.00;100241.22;5035052;28;20497;-79
2023/07/31 09:07:04;;;;;;;9.02;4.72;;;;;;;18.73;100.00;100255.50;5050328;28;20081;-78
2023/07/31 09:09:31;;;;;;;7.50;4.45;;;;;;;18.54;100.00;100251.97;5042657;28;20081;-79
2023/07/31 09:11:58;;;;;;;8.05;4.53;;;;;;;18.49;100.00;100253.63;5042560;28;20128;-80
2023/07/31 09:14:26;;;;;;;7.65;4.70;;;;;;;18.64;100.00;100259.47;5042294;28;20046;-80
2023/07/31 09:16:54;;;;;;;6.53;4.85;;;;;;;18.65;100.00;100266.38;5033249;28;20136;-78
2023/07/31 09:19:28;;;;;;;9.82;4.80;;;;;;;18.55;100.00;100258.06;5033522;28;20057;-80
2023/07/31 09:21:56;;;;;;;7.68;4.22;;;;;;;18.76;100.00;100263.03;5031295;28;20085;-78
2023/07/31 09:24:27;;;;;;;7.05;4.65;;;;;;;18.92;100.00;100240.41;5035185;28;20073;-80
2023/07/31 09:26:55;;;;;;;7.93;4.70;;;;;;;19.40;99.22;100234.38;5025169;28;20049;-78
2023/07/31 09:29:22;;;;;;;9.02;4.50;;;;;;;19.91;96.91;100223.28;5040371;28;20448;-78
2023/07/31 09:31:48;;;;;;;8.13;4.60;;;;;;;20.25;94.17;100221.75;5042563;28;20144;-79
2023/07/31 09:34:15;;;;;;;7.70;4.40;;;;;;;20.15;92.48;100211.69;5043521;28;20509;-78
2023/07/31 09:36:43;;;;;;;7.68;4.47;;;;;;;20.50;91.88;100211.75;5037907;28;20045;-78
2023/07/31 09:39:12;;;;;;;6.20;4.25;;;;;;;20.86;91.69;100218.63;5037681;28;20057;-78
2023/07/31 09:41:39;;;;;;;6.68;4.45;;;;;;;20.64;89.80;100204.34;5035046;28;20080;-79
2023/07/31 09:44:06;;;;;;;8.15;4.32;;;;;;;20.45;89.63;100194.84;5035480;28;20081;-79
2023/07/31 09:46:36;;;;;;;6.82;4.25;;;;;;;20.23;89.90;100196.44;5023876;28;20053;-79
2023/07/31 09:49:10;;;;;;;13.75;5.15;;;;;;;19.98;90.06;100204.59;5039314;28;20515;-79
2023/07/31 09:51:38;;;;;;;9.00;5.55;;;;;;;20.01;90.67;100210.25;5024472;28;20208;-79
2023/07/31 09:54:12;;;;;;;8.23;4.40;;;;;;;19.96;89.35;100194.19;5034382;28;20530;-79
2023/07/31 09:56:43;;;;;;;7.15;4.50;;;;;;;19.92;90.35;100195.69;5040378;28;20051;-77
2023/07/31 09:59:12;;;;;;;6.00;4.82;;;;;;;20.15;90.63;100189.63;5036526;28;20049;-80
2023/07/31 10:01:40;;;;;;;7.43;4.35;;;;;;;20.07;90.42;100187.31;5043850;28;20056;-80
2023/07/31 10:04:08;;;;;;;7.10;4.45;;;;;;;20.04;91.03;100180.59;5057555;28;20127;-79
2023/07/31 10:06:38;;;;;;;9.55;4.57;;;;;;;20.27;90.39;100181.66;5038443;28;20140;-82
2023/07/31 10:09:07;;;;;;;6.82;4.32;;;;;;;20.15;89.29;100179.00;5035799;28;20353;-80
2023/07/31 10:11:39;;;;;;;6.35;4.78;;;;;;;20.23;88.89;100183.16;5038551;28;20075;-80
2023/07/31 10:14:06;;;;;;;8.07;4.47;;;;;;;20.26;89.00;100180.06;5034166;28;20514;-79
2023/07/31 10:16:34;;;;;;;5.45;4.30;;;;;;;20.20;88.70;100177.28;5034849;28;20207;-78
2023/07/31 10:19:01;;;;;;;9.80;4.78;;;;;;;20.07;89.17;100185.44;5034708;28;20053;-77
2023/07/31 10:21:27;;;;;;;5.72;3.95;;;;;;;20.13;90.13;100189.03;5050687;28;20132;-78
2023/07/31 10:23:55;;;;;;;11.82;4.95;;;;;;;20.20;90.38;100190.56;5039484;28;20041;-78
2023/07/31 10:26:24;;;;;;;8.00;4.78;;;;;;;20.27;90.08;100190.44;5031423;28;20129;-78
2023/07/31 10:28:54;;;;;;;8.35;4.80;;;;;;;19.96;90.18;100191.53;5034607;28;20059;-78
2023/07/31 10:31:22;;;;;;;7.68;4.30;;;;;;;19.76;92.12;100191.06;5043070;28;20119;-79
2023/07/31 10:33:49;;;;;;;6.07;4.35;;;;;;;19.79;92.78;100186.09;5048197;28;20136;-79
2023/07/31 10:36:18;;;;;;;8.32;4.60;;;;;;;19.74;92.95;100188.63;5044680;28;20133;-79
2023/07/31 10:38:46;;;;;;;7.65;4.60;;;;;;;19.83;92.47;100178.50;5044479;28;20384;-79
2023/07/31 10:41:13;;;;;;;6.18;4.43;;;;;;;19.78;92.18;100183.69;5050407;28;20059;-78
2023/07/31 10:43:40;;;;;;;7.25;4.30;;;;;;;19.66;91.33;100183.63;5046610;28;20132;-79
2023/07/31 10:46:13;;;;;;;6.72;4.07;;;;;;;19.70;92.94;100187.47;5045617;28;20073;-78
2023/07/31 10:48:41;;;;;;;7.60;4.20;;;;;;;19.79;94.03;100195.91;5013955;28;20046;-79
2023/07/31 10:51:10;;;;;;;6.38;4.03;;;;;;;19.84;94.06;100188.06;5038495;28;20050;-78
2023/07/31 10:53:37;;;;;;;5.45;3.58;;;;;;;19.67;95.28;100189.75;5022663;28;20355;-76
2023/07/31 10:56:05;;;;;;;8.57;3.90;;;;;;;19.44;95.39;100193.91;5054333;28;20160;-78
2023/07/31 10:58:33;;;;;;;5.65;3.92;;;;;;;19.60;96.19;100197.81;5054499;28;20045;-76
2023/07/31 11:01:02;;;;;;;6.00;3.40;;;;;;;19.73;95.94;100194.16;5053877;28;20131;-77
2023/07/31 11:03:44;;;;;;;5.10;3.67;;;;;;;19.86;95.19;100180.66;5045926;28;20049;-79
2023/07/31 11:06:11;;;;;;;4.90;3.08;;;;;;;20.12;93.41;100177.59;5053316;28;20128;-76
2023/07/31 11:08:43;;;;;;;7.18;3.25;;;;;;;20.26;91.46;100164.13;5045231;28;20127;-78
2023/07/31 11:11:11;;;;;;;4.38;2.90;;;;;;;20.46;90.63;100153.97;5053553;28;20094;-79
2023/07/31 11:13:44;;;;;;;2.30;2.03;;;;;;;20.48;89.63;100141.25;5053486;28;20108;-78
2023/07/31 11:16:12;;;;;;;4.45;2.30;;;;;;;20.44;89.13;100140.09;5044575;28;20099;-77
2023/07/31 11:18:41;;;;;;;3.00;2.40;;;;;;;20.63;87.92;100138.94;5038726;28;20080;-77
2023/07/31 11:21:09;;;;;;;3.40;1.95;;;;;;;20.69;88.31;100134.53;5055378;28;20049;-80
2023/07/31 11:23:40;;;;;;;5.82;2.60;;;;;;;20.82;87.79;100143.03;5033213;28;20092;-78
2023/07/31 11:26:08;;;;;;;2.90;2.30;;;;;;;20.97;87.35;100149.72;5041069;28;20095;-78